sensor_id;sensor_type;location;lat;lon;timestamp;temperature;humidity
21992;DHT22;11160;51.576;0.194;2022-08-07T00:01:21;25.50;62.20
21992;DHT22;11160;51.576;0.194;2022-08-07T00:04:08;25.50;62.20
21992;DHT22;11160;51.576;0.194;2022-08-07T00:06:42;25.40;62.10
21992;DHT22;11160;51.576;0.194;2022-08-07T00:09:19;25.40;62.20
21992;DHT22;11160;51.576;0.194;2022-08-07T00:11:50;25.40;62.40
21992;DHT22;11160;51.576;0.194;2022-08-07T00:14:25;25.40;62.40
21992;DHT22;11160;51.576;0.194;2022-08-07T00:16:59;25.40;62.40
21992;DHT22;11160;51.576;0.194;2022-08-07T00:19:28;25.30;62.40
21992;DHT22;11160;51.576;0.194;2022-08-07T00:22:17;25.30;62.50
21992;DHT22;11160;51.576;0.194;2022-08-07T00:25:05;25.30;62.60
21992;DHT22;11160;51.576;0.194;2022-08-07T00:27:41;25.30;62.70
21992;DHT22;11160;51.576;0.194;2022-08-07T00:30:22;25.20;62.50
21992;DHT22;11160;51.576;0.194;2022-08-07T00:32:54;25.20;62.60
21992;DHT22;11160;51.576;0.194;2022-08-07T00:35:22;25.20;62.80
21992;DHT22;11160;51.576;0.194;2022-08-07T00:37:50;25.10;62.70
21992;DHT22;11160;51.576;0.194;2022-08-07T00:40:17;25.10;62.70
21992;DHT22;11160;51.576;0.194;2022-08-07T00:43:05;25.10;62.80
21992;DHT22;11160;51.576;0.194;2022-08-07T00:45:39;25.10;62.80
21992;DHT22;11160;51.576;0.194;2022-08-07T00:48:07;25.00;62.80
21992;DHT22;11160;51.576;0.194;2022-08-07T00:50:38;25.00;62.90
21992;DHT22;11160;51.576;0.194;2022-08-07T00:53:18;25.00;63.00
21992;DHT22;11160;51.576;0.194;2022-08-07T00:55:47;25.00;63.00
21992;DHT22;11160;51.576;0.194;2022-08-07T00:58:30;24.90;63.00
21992;DHT22;11160;51.576;0.194;2022-08-07T01:00:58;24.90;63.10
21992;DHT22;11160;51.576;0.194;2022-08-07T01:03:25;24.90;63.20
21992;DHT22;11160;51.576;0.194;2022-08-07T01:06:13;24.90;63.20
21992;DHT22;11160;51.576;0.194;2022-08-07T01:08:42;24.80;63.20
21992;DHT22;11160;51.576;0.194;2022-08-07T01:11:19;24.80;63.30
21992;DHT22;11160;51.576;0.194;2022-08-07T01:14:08;24.80;63.20
21992;DHT22;11160;51.576;0.194;2022-08-07T01:16:36;24.80;63.30
21992;DHT22;11160;51.576;0.194;2022-08-07T01:19:07;24.70;63.30
21992;DHT22;11160;51.576;0.194;2022-08-07T01:21:47;24.70;63.40
21992;DHT22;11160;51.576;0.194;2022-08-07T01:24:19;24.70;63.30
21992;DHT22;11160;51.576;0.194;2022-08-07T01:26:52;24.70;63.40
21992;DHT22;11160;51.576;0.194;2022-08-07T01:29:24;24.60;63.40
21992;DHT22;11160;51.576;0.194;2022-08-07T01:31:58;24.60;63.40
21992;DHT22;11160;51.576;0.194;2022-08-07T01:34:31;24.60;64.40
21992;DHT22;11160;51.576;0.194;2022-08-07T01:37:07;24.60;63.60
21992;DHT22;11160;51.576;0.194;2022-08-07T01:39:38;24.60;63.60
21992;DHT22;11160;51.576;0.194;2022-08-07T01:42:21;24.50;63.60
21992;DHT22;11160;51.576;0.194;2022-08-07T01:45:08;24.50;63.70
21992;DHT22;11160;51.576;0.194;2022-08-07T01:47:49;24.40;64.50
21992;DHT22;11160;51.576;0.194;2022-08-07T01:50:37;24.40;63.80
21992;DHT22;11160;51.576;0.194;2022-08-07T01:53:09;24.40;63.90
21992;DHT22;11160;51.576;0.194;2022-08-07T01:55:57;24.40;63.90
21992;DHT22;11160;51.576;0.194;2022-08-07T01:58:38;24.30;63.80
21992;DHT22;11160;51.576;0.194;2022-08-07T02:01:16;24.30;64.00
21992;DHT22;11160;51.576;0.194;2022-08-07T02:04:25;24.30;64.00
21992;DHT22;11160;51.576;0.194;2022-08-07T02:06:58;24.30;64.30
21992;DHT22;11160;51.576;0.194;2022-08-07T02:09:30;24.30;64.10
21992;DHT22;11160;51.576;0.194;2022-08-07T02:12:19;24.20;64.20
21992;DHT22;11160;51.576;0.194;2022-08-07T02:14:57;24.10;64.10
21992;DHT22;11160;51.576;0.194;2022-08-07T02:17:45;24.10;64.10
21992;DHT22;11160;51.576;0.194;2022-08-07T02:20:18;24.10;64.20
21992;DHT22;11160;51.576;0.194;2022-08-07T02:22:55;24.10;64.20
21992;DHT22;11160;51.576;0.194;2022-08-07T02:25:29;24.10;64.30
21992;DHT22;11160;51.576;0.194;2022-08-07T02:28:18;24.00;64.30
21992;DHT22;11160;51.576;0.194;2022-08-07T02:30:53;24.00;64.40
21992;DHT22;11160;51.576;0.194;2022-08-07T02:33:24;24.00;64.50
21992;DHT22;11160;51.576;0.194;2022-08-07T02:36:14;24.00;64.60
21992;DHT22;11160;51.576;0.194;2022-08-07T02:39:03;24.00;64.60
21992;DHT22;11160;51.576;0.194;2022-08-07T02:41:51;23.90;64.60
21992;DHT22;11160;51.576;0.194;2022-08-07T02:44:23;23.90;64.70
21992;DHT22;11160;51.576;0.194;2022-08-07T02:46:57;23.90;64.70
21992;DHT22;11160;51.576;0.194;2022-08-07T02:49:29;23.80;64.70
21992;DHT22;11160;51.576;0.194;2022-08-07T02:52:22;23.80;64.80
21992;DHT22;11160;51.576;0.194;2022-08-07T02:55:06;23.80;64.80
21992;DHT22;11160;51.576;0.194;2022-08-07T02:57:55;23.80;65.00
21992;DHT22;11160;51.576;0.194;2022-08-07T03:00:27;23.70;64.90
21992;DHT22;11160;51.576;0.194;2022-08-07T03:02:57;23.70;64.90
21992;DHT22;11160;51.576;0.194;2022-08-07T03:05:24;23.70;64.90
21992;DHT22;11160;51.576;0.194;2022-08-07T03:08:05;23.70;65.10
21992;DHT22;11160;51.576;0.194;2022-08-07T03:10:41;23.70;65.10
21992;DHT22;11160;51.576;0.194;2022-08-07T03:13:17;23.60;65.00
21992;DHT22;11160;51.576;0.194;2022-08-07T03:15:47;23.60;65.20
21992;DHT22;11160;51.576;0.194;2022-08-07T03:18:28;23.60;65.20
21992;DHT22;11160;51.576;0.194;2022-08-07T03:21:04;23.60;65.20
21992;DHT22;11160;51.576;0.194;2022-08-07T03:23:38;23.60;65.30
21992;DHT22;11160;51.576;0.194;2022-08-07T03:26:31;23.50;65.20
21992;DHT22;11160;51.576;0.194;2022-08-07T03:29:05;23.50;65.30
21992;DHT22;11160;51.576;0.194;2022-08-07T03:31:44;23.50;66.10
21992;DHT22;11160;51.576;0.194;2022-08-07T03:34:17;23.50;65.30
21992;DHT22;11160;51.576;0.194;2022-08-07T03:36:55;23.40;65.40
21992;DHT22;11160;51.576;0.194;2022-08-07T03:39:25;23.40;65.40
21992;DHT22;11160;51.576;0.194;2022-08-07T03:42:15;23.40;65.30
21992;DHT22;11160;51.576;0.194;2022-08-07T03:44:46;23.40;65.40
21992;DHT22;11160;51.576;0.194;2022-08-07T03:47:20;23.40;65.50
21992;DHT22;11160;51.576;0.194;2022-08-07T03:49:49;23.30;65.50
21992;DHT22;11160;51.576;0.194;2022-08-07T03:52:24;23.30;65.50
21992;DHT22;11160;51.576;0.194;2022-08-07T03:55:00;23.30;65.60
21992;DHT22;11160;51.576;0.194;2022-08-07T03:57:36;23.30;65.80
21992;DHT22;11160;51.576;0.194;2022-08-07T04:00:29;23.20;66.20
21992;DHT22;11160;51.576;0.194;2022-08-07T04:03:01;23.20;65.70
21992;DHT22;11160;51.576;0.194;2022-08-07T04:05:36;23.20;65.80
21992;DHT22;11160;51.576;0.194;2022-08-07T04:08:13;23.10;65.70
21992;DHT22;11160;51.576;0.194;2022-08-07T04:10:45;23.10;65.80
21992;DHT22;11160;51.576;0.194;2022-08-07T04:13:35;23.10;65.70
21992;DHT22;11160;51.576;0.194;2022-08-07T04:16:23;23.10;65.80
21992;DHT22;11160;51.576;0.194;2022-08-07T04:19:01;23.10;65.90
21992;DHT22;11160;51.576;0.194;2022-08-07T04:21:40;23.10;66.00
21992;DHT22;11160;51.576;0.194;2022-08-07T04:24:30;23.10;66.00
21992;DHT22;11160;51.576;0.194;2022-08-07T04:27:07;23.00;65.90
21992;DHT22;11160;51.576;0.194;2022-08-07T04:29:54;23.00;66.10
21992;DHT22;11160;51.576;0.194;2022-08-07T04:32:49;23.00;66.00
21992;DHT22;11160;51.576;0.194;2022-08-07T04:35:27;23.00;66.10
21992;DHT22;11160;51.576;0.194;2022-08-07T04:38:08;22.90;66.00
21992;DHT22;11160;51.576;0.194;2022-08-07T04:40:44;22.90;66.30
21992;DHT22;11160;51.576;0.194;2022-08-07T04:43:32;22.90;66.20
21992;DHT22;11160;51.576;0.194;2022-08-07T05:00:46;22.80;66.60
21992;DHT22;11160;51.576;0.194;2022-08-07T05:03:30;22.80;66.60
21992;DHT22;11160;51.576;0.194;2022-08-07T05:09:28;22.70;66.80
21992;DHT22;11160;51.576;0.194;2022-08-07T05:12:18;22.70;66.50
21992;DHT22;11160;51.576;0.194;2022-08-07T05:15:19;22.70;66.60
21992;DHT22;11160;51.576;0.194;2022-08-07T05:18:01;22.70;67.00
21992;DHT22;11160;51.576;0.194;2022-08-07T05:20:47;22.60;66.70
21992;DHT22;11160;51.576;0.194;2022-08-07T05:23:26;22.60;66.80
21992;DHT22;11160;51.576;0.194;2022-08-07T05:26:01;22.60;66.80
21992;DHT22;11160;51.576;0.194;2022-08-07T05:28:44;22.60;66.70
21992;DHT22;11160;51.576;0.194;2022-08-07T05:31:19;22.60;66.80
21992;DHT22;11160;51.576;0.194;2022-08-07T05:33:50;22.60;66.90
21992;DHT22;11160;51.576;0.194;2022-08-07T05:36:33;22.60;67.00
21992;DHT22;11160;51.576;0.194;2022-08-07T05:39:05;22.60;67.00
21992;DHT22;11160;51.576;0.194;2022-08-07T05:41:58;22.60;67.10
21992;DHT22;11160;51.576;0.194;2022-08-07T05:44:34;22.60;67.20
21992;DHT22;11160;51.576;0.194;2022-08-07T05:47:07;22.50;67.20
21992;DHT22;11160;51.576;0.194;2022-08-07T05:49:48;22.50;67.30
21992;DHT22;11160;51.576;0.194;2022-08-07T05:52:18;22.50;67.30
21992;DHT22;11160;51.576;0.194;2022-08-07T05:54:58;22.50;67.30
21992;DHT22;11160;51.576;0.194;2022-08-07T05:57:36;22.50;67.40
21992;DHT22;11160;51.576;0.194;2022-08-07T06:00:09;22.50;67.40
21992;DHT22;11160;51.576;0.194;2022-08-07T06:02:49;22.50;67.40
21992;DHT22;11160;51.576;0.194;2022-08-07T06:05:20;22.50;67.60
21992;DHT22;11160;51.576;0.194;2022-08-07T06:07:57;22.50;67.50
21992;DHT22;11160;51.576;0.194;2022-08-07T06:10:46;22.50;67.60
21992;DHT22;11160;51.576;0.194;2022-08-07T06:13:19;22.50;67.60
21992;DHT22;11160;51.576;0.194;2022-08-07T06:16:07;22.50;67.70
21992;DHT22;11160;51.576;0.194;2022-08-07T06:18:41;22.50;67.70
21992;DHT22;11160;51.576;0.194;2022-08-07T06:21:18;22.50;67.80
21992;DHT22;11160;51.576;0.194;2022-08-07T06:24:05;22.50;67.80
21992;DHT22;11160;51.576;0.194;2022-08-07T06:26:53;22.50;67.80
21992;DHT22;11160;51.576;0.194;2022-08-07T06:29:26;22.50;67.90
21992;DHT22;11160;51.576;0.194;2022-08-07T06:31:56;22.50;68.00
21992;DHT22;11160;51.576;0.194;2022-08-07T06:34:27;22.50;67.90
21992;DHT22;11160;51.576;0.194;2022-08-07T06:36:57;22.50;67.80
21992;DHT22;11160;51.576;0.194;2022-08-07T06:39:31;22.50;67.90
21992;DHT22;11160;51.576;0.194;2022-08-07T06:42:31;22.50;68.00
21992;DHT22;11160;51.576;0.194;2022-08-07T06:45:22;22.50;68.20
21992;DHT22;11160;51.576;0.194;2022-08-07T06:48:01;22.50;68.10
21992;DHT22;11160;51.576;0.194;2022-08-07T06:50:40;22.50;68.10
21992;DHT22;11160;51.576;0.194;2022-08-07T06:53:16;22.60;68.10
21992;DHT22;11160;51.576;0.194;2022-08-07T06:56:06;22.60;68.00
21992;DHT22;11160;51.576;0.194;2022-08-07T06:58:43;22.60;68.00
21992;DHT22;11160;51.576;0.194;2022-08-07T07:01:33;22.70;67.90
21992;DHT22;11160;51.576;0.194;2022-08-07T07:04:15;22.70;67.70
21992;DHT22;11160;51.576;0.194;2022-08-07T07:07:00;22.80;67.60
21992;DHT22;11160;51.576;0.194;2022-08-07T07:09:44;22.90;67.50
21992;DHT22;11160;51.576;0.194;2022-08-07T07:15:22;23.00;67.50
21992;DHT22;11160;51.576;0.194;2022-08-07T07:18:14;23.00;67.70
21992;DHT22;11160;51.576;0.194;2022-08-07T07:21:19;23.10;67.60
21992;DHT22;11160;51.576;0.194;2022-08-07T07:23:53;23.10;67.80
21992;DHT22;11160;51.576;0.194;2022-08-07T07:26:38;23.30;67.80
21992;DHT22;11160;51.576;0.194;2022-08-07T07:29:20;23.30;67.90
21992;DHT22;11160;51.576;0.194;2022-08-07T07:32:11;23.30;68.00
21992;DHT22;11160;51.576;0.194;2022-08-07T07:34:43;23.40;68.10
21992;DHT22;11160;51.576;0.194;2022-08-07T07:37:12;23.40;68.30
21992;DHT22;11160;51.576;0.194;2022-08-07T07:40:03;23.50;68.40
21992;DHT22;11160;51.576;0.194;2022-08-07T07:42:43;23.60;68.60
21992;DHT22;11160;51.576;0.194;2022-08-07T07:45:18;23.60;68.60
21992;DHT22;11160;51.576;0.194;2022-08-07T07:48:09;23.70;69.40
21992;DHT22;11160;51.576;0.194;2022-08-07T07:50:37;23.80;68.70
21992;DHT22;11160;51.576;0.194;2022-08-07T07:53:07;23.80;68.70
21992;DHT22;11160;51.576;0.194;2022-08-07T07:55:52;23.90;68.90
21992;DHT22;11160;51.576;0.194;2022-08-07T07:58:29;24.00;69.00
21992;DHT22;11160;51.576;0.194;2022-08-07T08:01:07;24.00;69.10
21992;DHT22;11160;51.576;0.194;2022-08-07T08:03:57;24.10;69.20
21992;DHT22;11160;51.576;0.194;2022-08-07T08:06:39;24.20;69.40
21992;DHT22;11160;51.576;0.194;2022-08-07T08:09:20;24.20;69.20
21992;DHT22;11160;51.576;0.194;2022-08-07T08:11:50;24.20;70.50
21992;DHT22;11160;51.576;0.194;2022-08-07T08:14:34;24.30;69.20
21992;DHT22;11160;51.576;0.194;2022-08-07T08:17:06;24.40;69.60
21992;DHT22;11160;51.576;0.194;2022-08-07T08:20:05;24.50;69.60
21992;DHT22;11160;51.576;0.194;2022-08-07T08:22:50;24.60;70.10
21992;DHT22;11160;51.576;0.194;2022-08-07T08:25:39;24.80;69.60
21992;DHT22;11160;51.576;0.194;2022-08-07T08:28:36;24.90;69.80
21992;DHT22;11160;51.576;0.194;2022-08-07T08:31:19;25.10;69.40
21992;DHT22;11160;51.576;0.194;2022-08-07T08:33:56;25.20;69.10
21992;DHT22;11160;51.576;0.194;2022-08-07T08:36:26;25.20;68.80
21992;DHT22;11160;51.576;0.194;2022-08-07T08:38:59;25.30;68.60
21992;DHT22;11160;51.576;0.194;2022-08-07T08:41:50;25.30;68.50
21992;DHT22;11160;51.576;0.194;2022-08-07T08:44:33;25.40;68.60
21992;DHT22;11160;51.576;0.194;2022-08-07T08:50:34;25.50;68.50
21992;DHT22;11160;51.576;0.194;2022-08-07T08:53:31;25.50;68.60
21992;DHT22;11160;51.576;0.194;2022-08-07T08:56:14;25.50;68.40
21992;DHT22;11160;51.576;0.194;2022-08-07T08:58:53;25.60;68.40
21992;DHT22;11160;51.576;0.194;2022-08-07T09:01:25;25.70;68.50
21992;DHT22;11160;51.576;0.194;2022-08-07T09:07:05;25.80;68.70
21992;DHT22;11160;51.576;0.194;2022-08-07T09:09:57;25.90;68.70
21992;DHT22;11160;51.576;0.194;2022-08-07T09:15:50;26.10;68.40
21992;DHT22;11160;51.576;0.194;2022-08-07T09:24:30;26.40;68.60
21992;DHT22;11160;51.576;0.194;2022-08-07T09:30:11;26.60;68.30
21992;DHT22;11160;51.576;0.194;2022-08-07T09:35:56;26.80;68.10
21992;DHT22;11160;51.576;0.194;2022-08-07T09:38:58;26.90;67.70
21992;DHT22;11160;51.576;0.194;2022-08-07T09:44:48;27.10;67.60
21992;DHT22;11160;51.576;0.194;2022-08-07T09:48:05;27.10;67.50
21992;DHT22;11160;51.576;0.194;2022-08-07T09:53:33;27.30;67.50
21992;DHT22;11160;51.576;0.194;2022-08-07T10:10:39;27.70;67.30
21992;DHT22;11160;51.576;0.194;2022-08-07T10:19:21;27.90;67.80
21992;DHT22;11160;51.576;0.194;2022-08-07T10:27:56;28.10;67.90
21992;DHT22;11160;51.576;0.194;2022-08-07T10:30:57;28.20;68.40
21992;DHT22;11160;51.576;0.194;2022-08-07T10:39:41;28.40;68.10
21992;DHT22;11160;51.576;0.194;2022-08-07T10:45:25;28.50;68.00
21992;DHT22;11160;51.576;0.194;2022-08-07T10:48:23;28.60;67.90
21992;DHT22;11160;51.576;0.194;2022-08-07T10:51:13;28.60;67.80
21992;DHT22;11160;51.576;0.194;2022-08-07T11:02:31;28.90;67.10
21992;DHT22;11160;51.576;0.194;2022-08-07T11:05:35;29.00;67.70
21992;DHT22;11160;51.576;0.194;2022-08-07T11:11:17;29.10;67.50
21992;DHT22;11160;51.576;0.194;2022-08-07T11:13:52;29.20;67.60
21992;DHT22;11160;51.576;0.194;2022-08-07T11:16:58;29.30;68.00
21992;DHT22;11160;51.576;0.194;2022-08-07T11:22:24;29.40;67.70
21992;DHT22;11160;51.576;0.194;2022-08-07T11:25:25;29.50;67.50
21992;DHT22;11160;51.576;0.194;2022-08-07T11:31:03;29.70;67.20
21992;DHT22;11160;51.576;0.194;2022-08-07T11:33:54;29.80;66.80
21992;DHT22;11160;51.576;0.194;2022-08-07T11:45:43;30.20;66.90
21992;DHT22;11160;51.576;0.194;2022-08-07T11:51:16;30.60;65.70
21992;DHT22;11160;51.576;0.194;2022-08-07T11:57:27;31.20;64.40
21992;DHT22;11160;51.576;0.194;2022-08-07T12:00:15;31.40;64.30
21992;DHT22;11160;51.576;0.194;2022-08-07T12:09:00;32.40;63.60
21992;DHT22;11160;51.576;0.194;2022-08-07T12:11:41;32.80;60.90
21992;DHT22;11160;51.576;0.194;2022-08-07T12:14:47;33.00;60.70
21992;DHT22;11160;51.576;0.194;2022-08-07T12:17:51;33.00;60.70
21992;DHT22;11160;51.576;0.194;2022-08-07T12:21:06;33.30;59.90
21992;DHT22;11160;51.576;0.194;2022-08-07T12:23:58;33.60;58.50
21992;DHT22;11160;51.576;0.194;2022-08-07T12:29:34;34.20;57.10
21992;DHT22;11160;51.576;0.194;2022-08-07T12:34:52;34.90;55.40
21992;DHT22;11160;51.576;0.194;2022-08-07T12:37:23;35.30;54.90
21992;DHT22;11160;51.576;0.194;2022-08-07T12:40:12;35.80;53.80
21992;DHT22;11160;51.576;0.194;2022-08-07T12:43:04;36.20;53.30
21992;DHT22;11160;51.576;0.194;2022-08-07T12:48:46;36.40;50.40
21992;DHT22;11160;51.576;0.194;2022-08-07T12:51:25;36.40;50.20
21992;DHT22;11160;51.576;0.194;2022-08-07T12:54:28;36.50;50.10
21992;DHT22;11160;51.576;0.194;2022-08-07T12:57:04;36.70;48.80
21992;DHT22;11160;51.576;0.194;2022-08-07T12:59:36;37.00;49.40
21992;DHT22;11160;51.576;0.194;2022-08-07T13:02:43;37.20;48.70
21992;DHT22;11160;51.576;0.194;2022-08-07T13:05:43;37.50;46.80
21992;DHT22;11160;51.576;0.194;2022-08-07T13:08:50;37.70;46.10
21992;DHT22;11160;51.576;0.194;2022-08-07T13:18:12;38.30;44.30
21992;DHT22;11160;51.576;0.194;2022-08-07T13:21:40;38.40;44.30
21992;DHT22;11160;51.576;0.194;2022-08-07T13:24:25;38.60;45.00
21992;DHT22;11160;51.576;0.194;2022-08-07T13:27:12;38.60;44.00
21992;DHT22;11160;51.576;0.194;2022-08-07T13:29:56;38.60;44.40
21992;DHT22;11160;51.576;0.194;2022-08-07T13:35:55;38.80;44.10
21992;DHT22;11160;51.576;0.194;2022-08-07T13:41:33;38.30;44.30
21992;DHT22;11160;51.576;0.194;2022-08-07T13:44:09;38.10;44.10
21992;DHT22;11160;51.576;0.194;2022-08-07T13:46:42;38.20;44.80
21992;DHT22;11160;51.576;0.194;2022-08-07T13:49:17;38.20;44.20
21992;DHT22;11160;51.576;0.194;2022-08-07T13:52:06;38.30;44.50
21992;DHT22;11160;51.576;0.194;2022-08-07T13:54:57;38.30;45.10
21992;DHT22;11160;51.576;0.194;2022-08-07T13:57:27;38.20;44.50
21992;DHT22;11160;51.576;0.194;2022-08-07T14:00:06;38.10;44.50
21992;DHT22;11160;51.576;0.194;2022-08-07T14:02:55;38.00;44.50
21992;DHT22;11160;51.576;0.194;2022-08-07T14:05:25;37.90;44.60
21992;DHT22;11160;51.576;0.194;2022-08-07T14:08:05;37.70;44.80
21992;DHT22;11160;51.576;0.194;2022-08-07T14:10:35;37.50;45.00
21992;DHT22;11160;51.576;0.194;2022-08-07T14:13:13;37.30;45.10
21992;DHT22;11160;51.576;0.194;2022-08-07T14:16:00;37.10;45.50
21992;DHT22;11160;51.576;0.194;2022-08-07T14:18:53;37.00;45.50
21992;DHT22;11160;51.576;0.194;2022-08-07T14:21:33;36.80;46.00
21992;DHT22;11160;51.576;0.194;2022-08-07T14:24:37;36.60;46.00
21992;DHT22;11160;51.576;0.194;2022-08-07T14:27:10;36.50;46.30
21992;DHT22;11160;51.576;0.194;2022-08-07T14:30:04;36.30;46.80
21992;DHT22;11160;51.576;0.194;2022-08-07T14:32:41;36.20;47.00
21992;DHT22;11160;51.576;0.194;2022-08-07T14:35:18;36.00;47.10
21992;DHT22;11160;51.576;0.194;2022-08-07T14:38:07;36.00;47.30
21992;DHT22;11160;51.576;0.194;2022-08-07T14:41:05;35.80;47.50
21992;DHT22;11160;51.576;0.194;2022-08-07T14:43:40;35.70;47.60
21992;DHT22;11160;51.576;0.194;2022-08-07T14:46:27;35.60;47.70
21992;DHT22;11160;51.576;0.194;2022-08-07T14:49:16;35.40;47.70
21992;DHT22;11160;51.576;0.194;2022-08-07T14:52:05;35.30;47.90
21992;DHT22;11160;51.576;0.194;2022-08-07T14:54:38;35.20;48.10
21992;DHT22;11160;51.576;0.194;2022-08-07T14:57:13;35.10;48.20
21992;DHT22;11160;51.576;0.194;2022-08-07T14:59:46;35.00;48.40
21992;DHT22;11160;51.576;0.194;2022-08-07T15:02:32;34.90;48.60
21992;DHT22;11160;51.576;0.194;2022-08-07T15:05:05;34.80;48.80
21992;DHT22;11160;51.576;0.194;2022-08-07T15:07:50;34.70;49.00
21992;DHT22;11160;51.576;0.194;2022-08-07T15:10:21;34.60;49.20
21992;DHT22;11160;51.576;0.194;2022-08-07T15:13:20;34.50;49.30
21992;DHT22;11160;51.576;0.194;2022-08-07T15:16:05;34.40;49.70
21992;DHT22;11160;51.576;0.194;2022-08-07T15:18:44;34.30;49.70
21992;DHT22;11160;51.576;0.194;2022-08-07T15:21:27;34.20;50.00
21992;DHT22;11160;51.576;0.194;2022-08-07T15:24:24;34.10;50.30
21992;DHT22;11160;51.576;0.194;2022-08-07T15:27:14;34.10;50.40
21992;DHT22;11160;51.576;0.194;2022-08-07T15:29:46;34.00;51.00
21992;DHT22;11160;51.576;0.194;2022-08-07T15:32:43;33.90;50.60
21992;DHT22;11160;51.576;0.194;2022-08-07T15:35:32;33.80;50.80
21992;DHT22;11160;51.576;0.194;2022-08-07T15:38:26;33.70;50.70
21992;DHT22;11160;51.576;0.194;2022-08-07T15:41:16;33.70;51.00
21992;DHT22;11160;51.576;0.194;2022-08-07T15:44:13;33.60;51.00
21992;DHT22;11160;51.576;0.194;2022-08-07T15:46:43;33.60;51.30
21992;DHT22;11160;51.576;0.194;2022-08-07T15:49:25;33.60;51.30
21992;DHT22;11160;51.576;0.194;2022-08-07T15:52:21;33.50;51.50
21992;DHT22;11160;51.576;0.194;2022-08-07T15:54:59;33.40;51.60
21992;DHT22;11160;51.576;0.194;2022-08-07T15:57:31;33.40;51.70
21992;DHT22;11160;51.576;0.194;2022-08-07T16:00:16;33.40;51.80
21992;DHT22;11160;51.576;0.194;2022-08-07T16:03:10;33.30;51.90
21992;DHT22;11160;51.576;0.194;2022-08-07T16:05:58;33.20;52.10
21992;DHT22;11160;51.576;0.194;2022-08-07T16:08:28;33.20;52.10
21992;DHT22;11160;51.576;0.194;2022-08-07T16:11:07;33.20;52.20
21992;DHT22;11160;51.576;0.194;2022-08-07T16:14:08;33.20;52.40
21992;DHT22;11160;51.576;0.194;2022-08-07T16:20:00;33.00;52.60
21992;DHT22;11160;51.576;0.194;2022-08-07T16:22:54;32.90;52.70
21992;DHT22;11160;51.576;0.194;2022-08-07T16:25:52;32.90;52.90
21992;DHT22;11160;51.576;0.194;2022-08-07T16:52:16;32.40;53.60
21992;DHT22;11160;51.576;0.194;2022-08-07T16:55:15;32.40;53.80
21992;DHT22;11160;51.576;0.194;2022-08-07T16:58:04;32.30;53.90
21992;DHT22;11160;51.576;0.194;2022-08-07T17:06:48;32.20;54.20
21992;DHT22;11160;51.576;0.194;2022-08-07T17:20:34;31.00;46.00
21992;DHT22;11160;51.576;0.194;2022-08-07T17:29:11;30.70;46.10
21992;DHT22;11160;51.576;0.194;2022-08-07T17:32:16;30.50;42.60
21992;DHT22;11160;51.576;0.194;2022-08-07T17:35:06;30.40;42.90
21992;DHT22;11160;51.576;0.194;2022-08-07T17:38:10;30.20;41.40
21992;DHT22;11160;51.576;0.194;2022-08-07T17:44:10;30.10;43.40
21992;DHT22;11160;51.576;0.194;2022-08-07T17:47:36;30.00;42.00
21992;DHT22;11160;51.576;0.194;2022-08-07T17:50:25;29.90;40.40
21992;DHT22;11160;51.576;0.194;2022-08-07T17:53:06;29.70;42.10
21992;DHT22;11160;51.576;0.194;2022-08-07T17:56:21;29.70;41.90
21992;DHT22;11160;51.576;0.194;2022-08-07T18:04:58;29.60;41.90
21992;DHT22;11160;51.576;0.194;2022-08-07T18:08:12;29.50;40.70
21992;DHT22;11160;51.576;0.194;2022-08-07T18:11:06;29.40;41.80
21992;DHT22;11160;51.576;0.194;2022-08-07T18:16:46;29.30;40.60
21992;DHT22;11160;51.576;0.194;2022-08-07T18:19:39;29.30;40.80
21992;DHT22;11160;51.576;0.194;2022-08-07T18:22:36;29.20;39.20
21992;DHT22;11160;51.576;0.194;2022-08-07T18:25:08;29.10;39.10
21992;DHT22;11160;51.576;0.194;2022-08-07T18:31:22;29.00;41.00
21992;DHT22;11160;51.576;0.194;2022-08-07T18:40:37;28.90;41.70
21992;DHT22;11160;51.576;0.194;2022-08-07T18:49:47;28.70;39.90
21992;DHT22;11160;51.576;0.194;2022-08-07T18:52:57;28.60;40.80
21992;DHT22;11160;51.576;0.194;2022-08-07T19:04:20;28.30;40.50
21992;DHT22;11160;51.576;0.194;2022-08-07T19:10:07;28.20;40.60
21992;DHT22;11160;51.576;0.194;2022-08-07T19:15:44;28.00;40.70
21992;DHT22;11160;51.576;0.194;2022-08-07T19:21:58;27.90;40.90
21992;DHT22;11160;51.576;0.194;2022-08-07T19:27:04;27.70;41.10
21992;DHT22;11160;51.576;0.194;2022-08-07T19:29:57;27.60;41.20
21992;DHT22;11160;51.576;0.194;2022-08-07T19:32:49;27.60;41.30
21992;DHT22;11160;51.576;0.194;2022-08-07T19:35:26;27.60;41.40
21992;DHT22;11160;51.576;0.194;2022-08-07T19:38:02;27.50;41.40
21992;DHT22;11160;51.576;0.194;2022-08-07T19:40:44;27.40;41.60
21992;DHT22;11160;51.576;0.194;2022-08-07T19:43:24;27.40;41.70
21992;DHT22;11160;51.576;0.194;2022-08-07T19:46:13;27.30;42.70
21992;DHT22;11160;51.576;0.194;2022-08-07T19:48:48;27.20;42.00
21992;DHT22;11160;51.576;0.194;2022-08-07T19:51:20;27.20;42.30
21992;DHT22;11160;51.576;0.194;2022-08-07T19:54:09;27.10;42.20
21992;DHT22;11160;51.576;0.194;2022-08-07T19:57:00;27.00;42.30
21992;DHT22;11160;51.576;0.194;2022-08-07T19:59:52;26.90;42.60
21992;DHT22;11160;51.576;0.194;2022-08-07T20:02:44;26.80;42.70
21992;DHT22;11160;51.576;0.194;2022-08-07T20:05:23;26.80;42.80
21992;DHT22;11160;51.576;0.194;2022-08-07T20:08:01;26.70;42.80
21992;DHT22;11160;51.576;0.194;2022-08-07T20:10:33;26.60;43.00
21992;DHT22;11160;51.576;0.194;2022-08-07T20:13:38;26.60;43.20
21992;DHT22;11160;51.576;0.194;2022-08-07T20:16:08;26.50;43.20
21992;DHT22;11160;51.576;0.194;2022-08-07T20:18:57;26.40;43.40
21992;DHT22;11160;51.576;0.194;2022-08-07T20:21:25;26.30;43.50
21992;DHT22;11160;51.576;0.194;2022-08-07T20:24:18;26.20;44.50
21992;DHT22;11160;51.576;0.194;2022-08-07T20:26:48;26.20;44.00
21992;DHT22;11160;51.576;0.194;2022-08-07T20:29:47;26.20;44.30
21992;DHT22;11160;51.576;0.194;2022-08-07T20:32:31;26.20;43.90
21992;DHT22;11160;51.576;0.194;2022-08-07T20:35:13;26.10;44.20
21992;DHT22;11160;51.576;0.194;2022-08-07T20:37:47;26.10;44.30
21992;DHT22;11160;51.576;0.194;2022-08-07T20:40:29;26.00;45.50
21992;DHT22;11160;51.576;0.194;2022-08-07T20:43:03;26.00;45.90
21992;DHT22;11160;51.576;0.194;2022-08-07T20:45:42;26.00;46.20
21992;DHT22;11160;51.576;0.194;2022-08-07T20:48:34;25.90;46.60
21992;DHT22;11160;51.576;0.194;2022-08-07T20:51:03;25.90;47.10
21992;DHT22;11160;51.576;0.194;2022-08-07T20:53:37;25.90;47.30
21992;DHT22;11160;51.576;0.194;2022-08-07T20:56:29;25.80;47.60
21992;DHT22;11160;51.576;0.194;2022-08-07T20:59:02;25.70;47.70
21992;DHT22;11160;51.576;0.194;2022-08-07T21:01:31;25.70;48.00
21992;DHT22;11160;51.576;0.194;2022-08-07T21:04:24;25.70;48.10
21992;DHT22;11160;51.576;0.194;2022-08-07T21:06:58;25.60;48.40
21992;DHT22;11160;51.576;0.194;2022-08-07T21:09:40;25.60;48.90